Current Weather

Elkhart Muni

Elkhart, Indiana (KEKM)

Report from: Friday, April 19, 2024 5:15 AM EDT
Current time: Friday, April 19, 2024 5:30 AM EDT

Nearby weather – Weather history – Daily summaries
Weather forecast

Present weatherLight rain, mist
Temperature7.6°C (45.7°F)
Wind chill5.6°C (42.0°F)
Dew point7.6°C (45.7°F)
Winds 6 kts (3.1 m/s, 6.9 mph) Northwest (310°)
Visibility2.5 mi. (4 km)
Clouds Ceiling: Overcast 700 ft. (213 m)
Altimeter29.97 in.Hg (1015 mB)
PrecipitiationTrace
Relative humidity100 %
Density altitude-796 ft. (-243 m)
Remarks Fully automated report
System requires maintenance
Automated weather observing station with precipitation discriminator
Ceiling
Flight conditions Instrument Meteorological Conditions
Raw dataKEKM 190915Z AUTO 31006KT 2 1/2SM -RA BR OVC007 08/08 A2997 RMK AO2 CIG 005V010 P0000 T00760076 $
An error has occurred. This application may no longer respond until reloaded. Reload 🗙